sensor_id;sensor_type;location;lat;lon;timestamp;P1;durP1;ratioP1;P2;durP2;ratioP2
59300;SDS011;45073;52.740;6.784;2024-03-08T00:01:14;20.77;;;9.65;;
59300;SDS011;45073;52.740;6.784;2024-03-08T00:03:41;20.33;;;9.27;;
59300;SDS011;45073;52.740;6.784;2024-03-08T00:06:07;21.67;;;9.63;;
59300;SDS011;45073;52.740;6.784;2024-03-08T00:08:33;25.52;;;9.90;;
59300;SDS011;45073;52.740;6.784;2024-03-08T00:10:58;20.20;;;8.38;;
59300;SDS011;45073;52.740;6.784;2024-03-08T00:13:24;18.67;;;7.85;;
59300;SDS011;45073;52.740;6.784;2024-03-08T00:15:50;17.35;;;7.05;;
59300;SDS011;45073;52.740;6.784;2024-03-08T00:18:16;21.65;;;8.25;;
59300;SDS011;45073;52.740;6.784;2024-03-08T00:20:41;17.45;;;7.85;;
59300;SDS011;45073;52.740;6.784;2024-03-08T00:23:09;17.80;;;6.93;;
59300;SDS011;45073;52.740;6.784;2024-03-08T00:25:36;16.83;;;8.20;;
59300;SDS011;45073;52.740;6.784;2024-03-08T00:28:01;16.60;;;8.52;;
59300;SDS011;45073;52.740;6.784;2024-03-08T00:30:27;21.90;;;8.93;;
59300;SDS011;45073;52.740;6.784;2024-03-08T00:32:53;19.70;;;8.32;;
59300;SDS011;45073;52.740;6.784;2024-03-08T00:35:18;15.50;;;7.65;;
59300;SDS011;45073;52.740;6.784;2024-03-08T00:37:44;18.58;;;8.65;;
59300;SDS011;45073;52.740;6.784;2024-03-08T00:40:12;19.08;;;7.97;;
59300;SDS011;45073;52.740;6.784;2024-03-08T00:42:38;19.48;;;8.90;;
59300;SDS011;45073;52.740;6.784;2024-03-08T00:45:06;20.73;;;9.32;;
59300;SDS011;45073;52.740;6.784;2024-03-08T00:47:32;19.38;;;8.25;;
59300;SDS011;45073;52.740;6.784;2024-03-08T00:49:58;20.60;;;8.88;;
59300;SDS011;45073;52.740;6.784;2024-03-08T00:52:23;18.08;;;8.77;;
59300;SDS011;45073;52.740;6.784;2024-03-08T00:54:49;22.10;;;10.13;;
59300;SDS011;45073;52.740;6.784;2024-03-08T00:57:15;21.88;;;10.30;;
59300;SDS011;45073;52.740;6.784;2024-03-08T00:59:40;20.73;;;8.57;;
59300;SDS011;45073;52.740;6.784;2024-03-08T01:02:06;19.65;;;8.63;;
59300;SDS011;45073;52.740;6.784;2024-03-08T01:04:33;21.75;;;9.27;;
59300;SDS011;45073;52.740;6.784;2024-03-08T01:07:00;19.50;;;8.00;;
59300;SDS011;45073;52.740;6.784;2024-03-08T01:09:26;18.58;;;8.88;;
59300;SDS011;45073;52.740;6.784;2024-03-08T01:11:52;20.02;;;10.82;;
59300;SDS011;45073;52.740;6.784;2024-03-08T01:14:19;21.38;;;9.70;;
59300;SDS011;45073;52.740;6.784;2024-03-08T01:16:47;22.00;;;10.35;;
59300;SDS011;45073;52.740;6.784;2024-03-08T01:19:13;20.50;;;10.32;;
59300;SDS011;45073;52.740;6.784;2024-03-08T01:21:40;22.83;;;10.27;;
59300;SDS011;45073;52.740;6.784;2024-03-08T01:24:06;23.88;;;9.98;;
59300;SDS011;45073;52.740;6.784;2024-03-08T01:26:32;20.48;;;8.73;;
59300;SDS011;45073;52.740;6.784;2024-03-08T01:28:59;21.52;;;8.80;;
59300;SDS011;45073;52.740;6.784;2024-03-08T01:31:25;21.10;;;9.32;;
59300;SDS011;45073;52.740;6.784;2024-03-08T01:33:51;23.45;;;9.43;;
59300;SDS011;45073;52.740;6.784;2024-03-08T01:36:16;17.55;;;8.70;;
59300;SDS011;45073;52.740;6.784;2024-03-08T01:38:44;16.73;;;7.72;;
59300;SDS011;45073;52.740;6.784;2024-03-08T01:41:10;15.60;;;7.50;;
59300;SDS011;45073;52.740;6.784;2024-03-08T01:43:38;16.55;;;7.45;;
59300;SDS011;45073;52.740;6.784;2024-03-08T01:46:04;17.13;;;7.03;;
59300;SDS011;45073;52.740;6.784;2024-03-08T01:48:30;17.65;;;7.22;;
59300;SDS011;45073;52.740;6.784;2024-03-08T01:50:57;15.02;;;7.38;;
59300;SDS011;45073;52.740;6.784;2024-03-08T01:53:26;15.10;;;6.45;;
59300;SDS011;45073;52.740;6.784;2024-03-08T01:55:54;23.20;;;9.45;;
59300;SDS011;45073;52.740;6.784;2024-03-08T01:58:22;19.25;;;8.18;;
59300;SDS011;45073;52.740;6.784;2024-03-08T02:00:48;17.92;;;7.78;;
59300;SDS011;45073;52.740;6.784;2024-03-08T02:03:15;16.55;;;7.22;;
59300;SDS011;45073;52.740;6.784;2024-03-08T02:05:41;15.70;;;9.02;;
59300;SDS011;45073;52.740;6.784;2024-03-08T02:08:07;15.30;;;6.80;;
59300;SDS011;45073;52.740;6.784;2024-03-08T02:10:38;21.45;;;8.82;;
59300;SDS011;45073;52.740;6.784;2024-03-08T02:13:04;20.40;;;9.70;;
59300;SDS011;45073;52.740;6.784;2024-03-08T02:18:22;21.02;;;9.27;;
59300;SDS011;45073;52.740;6.784;2024-03-08T02:20:49;20.17;;;10.25;;
59300;SDS011;45073;52.740;6.784;2024-03-08T02:23:19;16.92;;;8.75;;
59300;SDS011;45073;52.740;6.784;2024-03-08T02:25:45;19.92;;;8.88;;
59300;SDS011;45073;52.740;6.784;2024-03-08T02:28:12;20.65;;;9.73;;
59300;SDS011;45073;52.740;6.784;2024-03-08T02:30:38;19.67;;;9.27;;
59300;SDS011;45073;52.740;6.784;2024-03-08T02:33:04;15.13;;;8.30;;
59300;SDS011;45073;52.740;6.784;2024-03-08T02:35:31;20.05;;;9.57;;
59300;SDS011;45073;52.740;6.784;2024-03-08T02:38:00;19.38;;;9.95;;
59300;SDS011;45073;52.740;6.784;2024-03-08T02:40:26;20.08;;;10.30;;
59300;SDS011;45073;52.740;6.784;2024-03-08T02:42:52;22.25;;;10.85;;
59300;SDS011;45073;52.740;6.784;2024-03-08T02:45:18;27.23;;;11.70;;
59300;SDS011;45073;52.740;6.784;2024-03-08T02:47:43;21.40;;;10.40;;
59300;SDS011;45073;52.740;6.784;2024-03-08T02:50:09;16.88;;;8.88;;
59300;SDS011;45073;52.740;6.784;2024-03-08T02:52:35;20.83;;;9.70;;
59300;SDS011;45073;52.740;6.784;2024-03-08T02:55:04;22.15;;;9.90;;
59300;SDS011;45073;52.740;6.784;2024-03-08T02:57:33;19.00;;;8.70;;
59300;SDS011;45073;52.740;6.784;2024-03-08T02:59:59;17.77;;;7.53;;
59300;SDS011;45073;52.740;6.784;2024-03-08T03:02:25;23.23;;;10.20;;
59300;SDS011;45073;52.740;6.784;2024-03-08T03:04:51;22.17;;;10.98;;
59300;SDS011;45073;52.740;6.784;2024-03-08T03:07:17;23.02;;;10.93;;
59300;SDS011;45073;52.740;6.784;2024-03-08T03:09:43;15.88;;;7.60;;
59300;SDS011;45073;52.740;6.784;2024-03-08T03:12:09;17.65;;;7.97;;
59300;SDS011;45073;52.740;6.784;2024-03-08T03:14:37;16.38;;;8.00;;
59300;SDS011;45073;52.740;6.784;2024-03-08T03:17:03;13.82;;;7.57;;
59300;SDS011;45073;52.740;6.784;2024-03-08T03:19:30;24.20;;;9.75;;
59300;SDS011;45073;52.740;6.784;2024-03-08T03:21:55;17.50;;;7.68;;
59300;SDS011;45073;52.740;6.784;2024-03-08T03:24:22;19.60;;;8.45;;
59300;SDS011;45073;52.740;6.784;2024-03-08T03:26:48;18.08;;;9.80;;
59300;SDS011;45073;52.740;6.784;2024-03-08T03:29:14;18.10;;;8.55;;
59300;SDS011;45073;52.740;6.784;2024-03-08T03:31:41;18.50;;;9.20;;
59300;SDS011;45073;52.740;6.784;2024-03-08T03:34:11;15.50;;;7.55;;
59300;SDS011;45073;52.740;6.784;2024-03-08T03:36:37;17.45;;;9.05;;
59300;SDS011;45073;52.740;6.784;2024-03-08T03:39:07;20.27;;;8.13;;
59300;SDS011;45073;52.740;6.784;2024-03-08T03:41:40;22.83;;;10.18;;
59300;SDS011;45073;52.740;6.784;2024-03-08T03:44:07;19.67;;;11.00;;
59300;SDS011;45073;52.740;6.784;2024-03-08T03:46:33;20.67;;;9.75;;
59300;SDS011;45073;52.740;6.784;2024-03-08T03:48:59;25.85;;;11.35;;
59300;SDS011;45073;52.740;6.784;2024-03-08T03:51:24;19.67;;;10.07;;
59300;SDS011;45073;52.740;6.784;2024-03-08T03:53:51;18.13;;;9.18;;
59300;SDS011;45073;52.740;6.784;2024-03-08T03:56:17;19.88;;;9.73;;
59300;SDS011;45073;52.740;6.784;2024-03-08T03:58:43;20.25;;;9.55;;
59300;SDS011;45073;52.740;6.784;2024-03-08T04:01:09;24.00;;;10.68;;
59300;SDS011;45073;52.740;6.784;2024-03-08T04:03:35;21.90;;;10.70;;
59300;SDS011;45073;52.740;6.784;2024-03-08T04:06:01;25.40;;;11.68;;
59300;SDS011;45073;52.740;6.784;2024-03-08T04:08:29;18.42;;;9.38;;
59300;SDS011;45073;52.740;6.784;2024-03-08T04:10:56;20.80;;;10.10;;
59300;SDS011;45073;52.740;6.784;2024-03-08T04:13:22;23.98;;;9.68;;
59300;SDS011;45073;52.740;6.784;2024-03-08T04:15:47;19.65;;;10.77;;
59300;SDS011;45073;52.740;6.784;2024-03-08T04:18:13;21.33;;;11.45;;
59300;SDS011;45073;52.740;6.784;2024-03-08T04:20:39;20.83;;;10.48;;
59300;SDS011;45073;52.740;6.784;2024-03-08T04:23:05;20.45;;;10.25;;
59300;SDS011;45073;52.740;6.784;2024-03-08T04:25:31;19.67;;;8.15;;
59300;SDS011;45073;52.740;6.784;2024-03-08T04:27:57;20.90;;;8.77;;
59300;SDS011;45073;52.740;6.784;2024-03-08T04:30:22;19.10;;;9.00;;
59300;SDS011;45073;52.740;6.784;2024-03-08T04:32:49;19.65;;;10.10;;
59300;SDS011;45073;52.740;6.784;2024-03-08T04:35:15;19.63;;;10.80;;
59300;SDS011;45073;52.740;6.784;2024-03-08T04:37:41;18.17;;;8.60;;
59300;SDS011;45073;52.740;6.784;2024-03-08T04:40:06;22.88;;;9.68;;
59300;SDS011;45073;52.740;6.784;2024-03-08T04:42:32;27.75;;;11.90;;
59300;SDS011;45073;52.740;6.784;2024-03-08T04:44:59;23.35;;;11.27;;
59300;SDS011;45073;52.740;6.784;2024-03-08T04:47:25;19.60;;;10.63;;
59300;SDS011;45073;52.740;6.784;2024-03-08T04:49:51;24.13;;;11.65;;
59300;SDS011;45073;52.740;6.784;2024-03-08T04:52:16;23.05;;;10.50;;
59300;SDS011;45073;52.740;6.784;2024-03-08T04:54:43;20.45;;;9.60;;
59300;SDS011;45073;52.740;6.784;2024-03-08T04:57:09;20.17;;;9.07;;
59300;SDS011;45073;52.740;6.784;2024-03-08T04:59:36;24.45;;;11.60;;
59300;SDS011;45073;52.740;6.784;2024-03-08T05:02:01;19.02;;;10.98;;
59300;SDS011;45073;52.740;6.784;2024-03-08T05:04:27;21.10;;;9.18;;
59300;SDS011;45073;52.740;6.784;2024-03-08T05:06:54;21.40;;;10.10;;
59300;SDS011;45073;52.740;6.784;2024-03-08T05:09:20;17.48;;;9.93;;
59300;SDS011;45073;52.740;6.784;2024-03-08T05:11:46;24.45;;;11.00;;
59300;SDS011;45073;52.740;6.784;2024-03-08T05:14:12;24.38;;;11.43;;
59300;SDS011;45073;52.740;6.784;2024-03-08T05:16:45;27.40;;;12.43;;
59300;SDS011;45073;52.740;6.784;2024-03-08T05:19:14;21.10;;;9.77;;
59300;SDS011;45073;52.740;6.784;2024-03-08T05:21:44;21.92;;;10.07;;
59300;SDS011;45073;52.740;6.784;2024-03-08T05:24:10;18.45;;;8.90;;
59300;SDS011;45073;52.740;6.784;2024-03-08T05:26:36;22.75;;;10.38;;
59300;SDS011;45073;52.740;6.784;2024-03-08T05:29:02;14.60;;;8.55;;
59300;SDS011;45073;52.740;6.784;2024-03-08T05:31:28;15.45;;;8.50;;
59300;SDS011;45073;52.740;6.784;2024-03-08T05:33:56;16.92;;;8.85;;
59300;SDS011;45073;52.740;6.784;2024-03-08T05:36:21;19.40;;;8.80;;
59300;SDS011;45073;52.740;6.784;2024-03-08T05:38:47;19.55;;;9.23;;
59300;SDS011;45073;52.740;6.784;2024-03-08T05:41:15;22.00;;;9.90;;
59300;SDS011;45073;52.740;6.784;2024-03-08T05:43:41;18.02;;;8.10;;
59300;SDS011;45073;52.740;6.784;2024-03-08T05:46:07;16.58;;;8.48;;
59300;SDS011;45073;52.740;6.784;2024-03-08T05:48:33;19.65;;;8.55;;
59300;SDS011;45073;52.740;6.784;2024-03-08T05:51:00;17.95;;;8.88;;
59300;SDS011;45073;52.740;6.784;2024-03-08T05:53:27;19.70;;;9.80;;
59300;SDS011;45073;52.740;6.784;2024-03-08T05:55:52;22.83;;;11.82;;
59300;SDS011;45073;52.740;6.784;2024-03-08T05:58:19;22.58;;;10.05;;
59300;SDS011;45073;52.740;6.784;2024-03-08T06:00:44;19.42;;;8.95;;
59300;SDS011;45073;52.740;6.784;2024-03-08T06:03:11;16.08;;;7.13;;
59300;SDS011;45073;52.740;6.784;2024-03-08T06:05:37;14.80;;;7.05;;
59300;SDS011;45073;52.740;6.784;2024-03-08T06:08:03;14.75;;;6.72;;
59300;SDS011;45073;52.740;6.784;2024-03-08T06:10:29;16.33;;;8.07;;
59300;SDS011;45073;52.740;6.784;2024-03-08T06:12:55;17.90;;;6.88;;
59300;SDS011;45073;52.740;6.784;2024-03-08T06:15:20;18.35;;;8.02;;
59300;SDS011;45073;52.740;6.784;2024-03-08T06:17:46;20.80;;;9.43;;
59300;SDS011;45073;52.740;6.784;2024-03-08T06:20:12;18.20;;;8.95;;
59300;SDS011;45073;52.740;6.784;2024-03-08T06:22:41;27.52;;;11.90;;
59300;SDS011;45073;52.740;6.784;2024-03-08T06:25:13;22.58;;;11.25;;
59300;SDS011;45073;52.740;6.784;2024-03-08T06:27:40;21.48;;;10.45;;
59300;SDS011;45073;52.740;6.784;2024-03-08T06:30:07;23.00;;;11.60;;
59300;SDS011;45073;52.740;6.784;2024-03-08T06:32:37;28.17;;;12.90;;
59300;SDS011;45073;52.740;6.784;2024-03-08T06:35:06;23.88;;;10.55;;
59300;SDS011;45073;52.740;6.784;2024-03-08T06:37:32;20.58;;;11.15;;
59300;SDS011;45073;52.740;6.784;2024-03-08T06:39:58;23.08;;;8.82;;
59300;SDS011;45073;52.740;6.784;2024-03-08T06:42:24;21.67;;;10.52;;
59300;SDS011;45073;52.740;6.784;2024-03-08T06:44:49;21.75;;;10.73;;
59300;SDS011;45073;52.740;6.784;2024-03-08T06:47:15;21.02;;;8.95;;
59300;SDS011;45073;52.740;6.784;2024-03-08T06:49:44;19.80;;;8.35;;
59300;SDS011;45073;52.740;6.784;2024-03-08T06:52:10;21.65;;;11.48;;
59300;SDS011;45073;52.740;6.784;2024-03-08T06:54:36;21.27;;;10.00;;
59300;SDS011;45073;52.740;6.784;2024-03-08T06:57:02;23.20;;;11.23;;
59300;SDS011;45073;52.740;6.784;2024-03-08T06:59:29;22.98;;;11.68;;
59300;SDS011;45073;52.740;6.784;2024-03-08T07:01:54;16.67;;;8.68;;
59300;SDS011;45073;52.740;6.784;2024-03-08T07:04:20;24.25;;;8.38;;
59300;SDS011;45073;52.740;6.784;2024-03-08T07:06:47;20.50;;;10.25;;
59300;SDS011;45073;52.740;6.784;2024-03-08T07:09:15;22.30;;;9.43;;
59300;SDS011;45073;52.740;6.784;2024-03-08T07:11:42;21.75;;;10.43;;
59300;SDS011;45073;52.740;6.784;2024-03-08T07:14:07;22.45;;;9.70;;
59300;SDS011;45073;52.740;6.784;2024-03-08T07:16:34;20.95;;;8.90;;
59300;SDS011;45073;52.740;6.784;2024-03-08T07:19:03;17.52;;;8.93;;
59300;SDS011;45073;52.740;6.784;2024-03-08T07:21:30;20.73;;;9.13;;
59300;SDS011;45073;52.740;6.784;2024-03-08T07:23:56;17.95;;;8.18;;
59300;SDS011;45073;52.740;6.784;2024-03-08T07:26:24;19.08;;;9.73;;
59300;SDS011;45073;52.740;6.784;2024-03-08T07:28:50;17.48;;;8.45;;
59300;SDS011;45073;52.740;6.784;2024-03-08T07:31:15;23.38;;;11.35;;
59300;SDS011;45073;52.740;6.784;2024-03-08T07:33:41;24.38;;;11.40;;
59300;SDS011;45073;52.740;6.784;2024-03-08T07:36:07;19.35;;;9.30;;
59300;SDS011;45073;52.740;6.784;2024-03-08T07:38:33;22.85;;;11.38;;
59300;SDS011;45073;52.740;6.784;2024-03-08T07:40:59;29.10;;;11.13;;
59300;SDS011;45073;52.740;6.784;2024-03-08T07:43:25;21.27;;;10.10;;
59300;SDS011;45073;52.740;6.784;2024-03-08T07:45:51;19.50;;;9.05;;
59300;SDS011;45073;52.740;6.784;2024-03-08T07:48:18;18.70;;;9.25;;
59300;SDS011;45073;52.740;6.784;2024-03-08T07:50:43;18.23;;;9.02;;
59300;SDS011;45073;52.740;6.784;2024-03-08T07:53:09;19.08;;;7.85;;
59300;SDS011;45073;52.740;6.784;2024-03-08T07:55:35;23.67;;;10.27;;
59300;SDS011;45073;52.740;6.784;2024-03-08T07:58:04;25.02;;;11.48;;
59300;SDS011;45073;52.740;6.784;2024-03-08T08:00:30;22.77;;;10.35;;
59300;SDS011;45073;52.740;6.784;2024-03-08T08:02:56;17.27;;;8.15;;
59300;SDS011;45073;52.740;6.784;2024-03-08T08:05:22;22.23;;;9.38;;
59300;SDS011;45073;52.740;6.784;2024-03-08T08:07:48;19.73;;;8.80;;
59300;SDS011;45073;52.740;6.784;2024-03-08T08:10:14;21.17;;;10.07;;
59300;SDS011;45073;52.740;6.784;2024-03-08T08:12:46;18.50;;;9.85;;
59300;SDS011;45073;52.740;6.784;2024-03-08T08:15:13;27.23;;;12.30;;
59300;SDS011;45073;52.740;6.784;2024-03-08T08:17:40;23.65;;;12.63;;
59300;SDS011;45073;52.740;6.784;2024-03-08T08:20:10;19.80;;;8.88;;
59300;SDS011;45073;52.740;6.784;2024-03-08T08:22:40;23.77;;;11.70;;
59300;SDS011;45073;52.740;6.784;2024-03-08T08:25:11;22.35;;;11.60;;
59300;SDS011;45073;52.740;6.784;2024-03-08T08:27:38;24.58;;;12.50;;
59300;SDS011;45073;52.740;6.784;2024-03-08T08:30:10;19.45;;;9.95;;
59300;SDS011;45073;52.740;6.784;2024-03-08T08:32:36;28.45;;;13.60;;
59300;SDS011;45073;52.740;6.784;2024-03-08T08:35:03;20.35;;;10.63;;
59300;SDS011;45073;52.740;6.784;2024-03-08T08:37:30;26.90;;;14.05;;
59300;SDS011;45073;52.740;6.784;2024-03-08T08:39:56;23.15;;;13.70;;
59300;SDS011;45073;52.740;6.784;2024-03-08T08:42:22;25.88;;;11.52;;
59300;SDS011;45073;52.740;6.784;2024-03-08T08:44:48;32.85;;;12.50;;
59300;SDS011;45073;52.740;6.784;2024-03-08T08:47:15;23.40;;;12.35;;
59300;SDS011;45073;52.740;6.784;2024-03-08T08:49:44;24.00;;;11.52;;
59300;SDS011;45073;52.740;6.784;2024-03-08T08:52:14;22.35;;;11.60;;
59300;SDS011;45073;52.740;6.784;2024-03-08T08:54:41;20.90;;;11.13;;
59300;SDS011;45073;52.740;6.784;2024-03-08T08:57:07;26.63;;;12.32;;
59300;SDS011;45073;52.740;6.784;2024-03-08T08:59:33;25.60;;;12.80;;
59300;SDS011;45073;52.740;6.784;2024-03-08T09:02:04;20.02;;;10.75;;
59300;SDS011;45073;52.740;6.784;2024-03-08T09:04:31;30.98;;;13.48;;
59300;SDS011;45073;52.740;6.784;2024-03-08T09:06:57;23.50;;;12.18;;
59300;SDS011;45073;52.740;6.784;2024-03-08T09:09:23;20.23;;;10.63;;
59300;SDS011;45073;52.740;6.784;2024-03-08T09:11:50;21.92;;;9.98;;
59300;SDS011;45073;52.740;6.784;2024-03-08T09:14:16;23.05;;;11.73;;
59300;SDS011;45073;52.740;6.784;2024-03-08T09:16:42;19.75;;;10.57;;
59300;SDS011;45073;52.740;6.784;2024-03-08T09:19:07;24.20;;;12.13;;
59300;SDS011;45073;52.740;6.784;2024-03-08T09:21:36;27.13;;;13.38;;
59300;SDS011;45073;52.740;6.784;2024-03-08T09:24:01;27.33;;;13.98;;
59300;SDS011;45073;52.740;6.784;2024-03-08T09:26:27;25.95;;;13.18;;
59300;SDS011;45073;52.740;6.784;2024-03-08T09:28:53;26.80;;;13.40;;
59300;SDS011;45073;52.740;6.784;2024-03-08T09:31:21;24.27;;;13.82;;
59300;SDS011;45073;52.740;6.784;2024-03-08T09:33:47;25.38;;;14.65;;
59300;SDS011;45073;52.740;6.784;2024-03-08T09:36:13;25.65;;;14.25;;
59300;SDS011;45073;52.740;6.784;2024-03-08T09:38:39;29.50;;;14.68;;
59300;SDS011;45073;52.740;6.784;2024-03-08T09:41:05;27.13;;;13.77;;
59300;SDS011;45073;52.740;6.784;2024-03-08T09:43:31;28.95;;;15.23;;
59300;SDS011;45073;52.740;6.784;2024-03-08T09:45:57;25.77;;;13.80;;
59300;SDS011;45073;52.740;6.784;2024-03-08T09:48:25;28.67;;;13.85;;
59300;SDS011;45073;52.740;6.784;2024-03-08T09:50:51;27.00;;;13.93;;
59300;SDS011;45073;52.740;6.784;2024-03-08T09:53:16;26.38;;;13.65;;
59300;SDS011;45073;52.740;6.784;2024-03-08T09:55:42;25.33;;;12.60;;
59300;SDS011;45073;52.740;6.784;2024-03-08T09:58:11;26.15;;;14.10;;
59300;SDS011;45073;52.740;6.784;2024-03-08T10:00:52;27.50;;;13.50;;
59300;SDS011;45073;52.740;6.784;2024-03-08T10:03:19;28.73;;;14.43;;
59300;SDS011;45073;52.740;6.784;2024-03-08T10:05:45;23.17;;;12.82;;
59300;SDS011;45073;52.740;6.784;2024-03-08T10:08:11;26.67;;;11.85;;
59300;SDS011;45073;52.740;6.784;2024-03-08T10:10:38;27.52;;;13.00;;
59300;SDS011;45073;52.740;6.784;2024-03-08T10:13:07;22.85;;;13.30;;
59300;SDS011;45073;52.740;6.784;2024-03-08T10:15:34;26.00;;;13.45;;
59300;SDS011;45073;52.740;6.784;2024-03-08T10:18:00;27.33;;;14.43;;
59300;SDS011;45073;52.740;6.784;2024-03-08T10:20:27;23.95;;;12.55;;
59300;SDS011;45073;52.740;6.784;2024-03-08T10:22:58;24.30;;;11.98;;
59300;SDS011;45073;52.740;6.784;2024-03-08T10:25:31;25.50;;;12.52;;
59300;SDS011;45073;52.740;6.784;2024-03-08T10:27:58;27.42;;;14.73;;
59300;SDS011;45073;52.740;6.784;2024-03-08T10:30:23;24.27;;;12.38;;
59300;SDS011;45073;52.740;6.784;2024-03-08T10:32:49;23.67;;;13.27;;
59300;SDS011;45073;52.740;6.784;2024-03-08T10:35:15;20.92;;;12.23;;
59300;SDS011;45073;52.740;6.784;2024-03-08T10:37:48;20.85;;;12.38;;
59300;SDS011;45073;52.740;6.784;2024-03-08T10:40:23;24.30;;;12.93;;
59300;SDS011;45073;52.740;6.784;2024-03-08T10:42:55;25.08;;;12.85;;
59300;SDS011;45073;52.740;6.784;2024-03-08T10:47:52;26.48;;;14.20;;
59300;SDS011;45073;52.740;6.784;2024-03-08T10:50:29;28.08;;;14.75;;
59300;SDS011;45073;52.740;6.784;2024-03-08T10:52:59;25.70;;;14.23;;
59300;SDS011;45073;52.740;6.784;2024-03-08T10:55:26;23.23;;;13.95;;
59300;SDS011;45073;52.740;6.784;2024-03-08T10:57:53;22.77;;;12.85;;
59300;SDS011;45073;52.740;6.784;2024-03-08T11:00:19;20.50;;;11.77;;
59300;SDS011;45073;52.740;6.784;2024-03-08T11:02:51;22.98;;;11.52;;
59300;SDS011;45073;52.740;6.784;2024-03-08T11:08:17;21.63;;;11.75;;
59300;SDS011;45073;52.740;6.784;2024-03-08T11:10:49;25.83;;;13.98;;
59300;SDS011;45073;52.740;6.784;2024-03-08T11:16:19;24.65;;;13.32;;
59300;SDS011;45073;52.740;6.784;2024-03-08T11:18:58;23.00;;;12.70;;
59300;SDS011;45073;52.740;6.784;2024-03-08T11:21:29;23.20;;;11.35;;
59300;SDS011;45073;52.740;6.784;2024-03-08T11:24:01;22.77;;;12.82;;
59300;SDS011;45073;52.740;6.784;2024-03-08T11:26:37;23.25;;;13.07;;
59300;SDS011;45073;52.740;6.784;2024-03-08T11:32:17;19.38;;;10.45;;
59300;SDS011;45073;52.740;6.784;2024-03-08T11:34:47;23.95;;;13.95;;
59300;SDS011;45073;52.740;6.784;2024-03-08T11:37:17;27.50;;;24.70;;
59300;SDS011;45073;52.740;6.784;2024-03-08T11:42:14;21.90;;;12.50;;
59300;SDS011;45073;52.740;6.784;2024-03-08T11:44:42;20.05;;;12.07;;
59300;SDS011;45073;52.740;6.784;2024-03-08T11:47:10;24.42;;;13.10;;
59300;SDS011;45073;52.740;6.784;2024-03-08T11:49:36;24.17;;;14.45;;
59300;SDS011;45073;52.740;6.784;2024-03-08T11:52:12;21.25;;;11.63;;
59300;SDS011;45073;52.740;6.784;2024-03-08T11:54:51;23.58;;;13.75;;
59300;SDS011;45073;52.740;6.784;2024-03-08T11:59:52;21.92;;;13.45;;
59300;SDS011;45073;52.740;6.784;2024-03-08T12:02:18;25.65;;;14.20;;
59300;SDS011;45073;52.740;6.784;2024-03-08T12:04:46;22.65;;;13.38;;
59300;SDS011;45073;52.740;6.784;2024-03-08T12:07:12;23.55;;;12.55;;
59300;SDS011;45073;52.740;6.784;2024-03-08T12:09:40;21.83;;;13.35;;
59300;SDS011;45073;52.740;6.784;2024-03-08T12:12:06;23.35;;;13.15;;
59300;SDS011;45073;52.740;6.784;2024-03-08T12:14:33;21.98;;;13.00;;
59300;SDS011;45073;52.740;6.784;2024-03-08T12:16:59;23.80;;;14.25;;
59300;SDS011;45073;52.740;6.784;2024-03-08T12:19:27;21.08;;;12.48;;
59300;SDS011;45073;52.740;6.784;2024-03-08T12:21:53;23.38;;;14.68;;
59300;SDS011;45073;52.740;6.784;2024-03-08T12:24:19;25.30;;;22.60;;
59300;SDS011;45073;52.740;6.784;2024-03-08T12:26:46;23.90;;;13.65;;
59300;SDS011;45073;52.740;6.784;2024-03-08T12:29:17;21.92;;;11.93;;
59300;SDS011;45073;52.740;6.784;2024-03-08T12:31:53;20.55;;;11.45;;
59300;SDS011;45073;52.740;6.784;2024-03-08T12:34:30;21.73;;;13.70;;
59300;SDS011;45073;52.740;6.784;2024-03-08T12:36:57;20.05;;;11.85;;
59300;SDS011;45073;52.740;6.784;2024-03-08T12:39:23;23.50;;;14.52;;
59300;SDS011;45073;52.740;6.784;2024-03-08T12:41:55;21.60;;;13.35;;
59300;SDS011;45073;52.740;6.784;2024-03-08T12:44:24;24.05;;;21.67;;
59300;SDS011;45073;52.740;6.784;2024-03-08T12:46:51;20.40;;;11.40;;
59300;SDS011;45073;52.740;6.784;2024-03-08T12:49:18;23.90;;;21.50;;
59300;SDS011;45073;52.740;6.784;2024-03-08T12:51:47;25.00;;;14.13;;
59300;SDS011;45073;52.740;6.784;2024-03-08T12:54:13;24.25;;;14.02;;
59300;SDS011;45073;52.740;6.784;2024-03-08T12:56:38;20.33;;;14.27;;
59300;SDS011;45073;52.740;6.784;2024-03-08T12:59:05;24.45;;;21.60;;
59300;SDS011;45073;52.740;6.784;2024-03-08T13:01:33;23.80;;;21.40;;
59300;SDS011;45073;52.740;6.784;2024-03-08T13:03:59;19.27;;;12.80;;
59300;SDS011;45073;52.740;6.784;2024-03-08T13:06:28;22.70;;;20.30;;
59300;SDS011;45073;52.740;6.784;2024-03-08T13:08:56;23.00;;;14.75;;
59300;SDS011;45073;52.740;6.784;2024-03-08T13:11:23;22.05;;;15.32;;
59300;SDS011;45073;52.740;6.784;2024-03-08T13:13:49;21.70;;;19.50;;
59300;SDS011;45073;52.740;6.784;2024-03-08T13:16:15;21.92;;;13.40;;
59300;SDS011;45073;52.740;6.784;2024-03-08T13:18:42;21.52;;;19.33;;
59300;SDS011;45073;52.740;6.784;2024-03-08T13:21:08;19.92;;;14.48;;
59300;SDS011;45073;52.740;6.784;2024-03-08T13:23:36;21.23;;;19.13;;
59300;SDS011;45073;52.740;6.784;2024-03-08T13:26:08;20.98;;;18.90;;
59300;SDS011;45073;52.740;6.784;2024-03-08T13:28:40;20.40;;;16.45;;
59300;SDS011;45073;52.740;6.784;2024-03-08T13:31:13;19.30;;;15.48;;
59300;SDS011;45073;52.740;6.784;2024-03-08T13:33:40;20.27;;;18.30;;
59300;SDS011;45073;52.740;6.784;2024-03-08T13:36:07;21.30;;;19.00;;
59300;SDS011;45073;52.740;6.784;2024-03-08T13:38:46;20.75;;;18.75;;
59300;SDS011;45073;52.740;6.784;2024-03-08T13:41:12;19.85;;;17.95;;
59300;SDS011;45073;52.740;6.784;2024-03-08T13:43:42;20.13;;;18.13;;
59300;SDS011;45073;52.740;6.784;2024-03-08T13:46:10;20.40;;;18.08;;
59300;SDS011;45073;52.740;6.784;2024-03-08T13:48:36;19.23;;;17.38;;
59300;SDS011;45073;52.740;6.784;2024-03-08T13:51:06;20.73;;;18.63;;
59300;SDS011;45073;52.740;6.784;2024-03-08T13:53:33;19.10;;;17.23;;
59300;SDS011;45073;52.740;6.784;2024-03-08T13:56:00;19.27;;;17.23;;
59300;SDS011;45073;52.740;6.784;2024-03-08T13:58:28;18.65;;;16.75;;
59300;SDS011;45073;52.740;6.784;2024-03-08T14:00:54;17.55;;;15.85;;
59300;SDS011;45073;52.740;6.784;2024-03-08T14:03:20;17.67;;;15.98;;
59300;SDS011;45073;52.740;6.784;2024-03-08T14:05:46;18.13;;;16.23;;
59300;SDS011;45073;52.740;6.784;2024-03-08T14:08:12;17.42;;;15.63;;
59300;SDS011;45073;52.740;6.784;2024-03-08T14:10:40;17.20;;;15.40;;
59300;SDS011;45073;52.740;6.784;2024-03-08T14:13:07;16.88;;;15.18;;
59300;SDS011;45073;52.740;6.784;2024-03-08T14:15:36;16.75;;;15.05;;
59300;SDS011;45073;52.740;6.784;2024-03-08T14:18:06;16.45;;;14.75;;
59300;SDS011;45073;52.740;6.784;2024-03-08T14:20:32;17.27;;;15.35;;
59300;SDS011;45073;52.740;6.784;2024-03-08T14:22:58;16.33;;;14.63;;
59300;SDS011;45073;52.740;6.784;2024-03-08T14:25:23;17.45;;;15.65;;
59300;SDS011;45073;52.740;6.784;2024-03-08T14:27:50;17.45;;;15.63;;
59300;SDS011;45073;52.740;6.784;2024-03-08T14:30:18;17.38;;;15.68;;
59300;SDS011;45073;52.740;6.784;2024-03-08T14:33:06;17.80;;;15.75;;
59300;SDS011;45073;52.740;6.784;2024-03-08T14:35:36;17.73;;;15.88;;
59300;SDS011;45073;52.740;6.784;2024-03-08T14:38:02;17.05;;;15.35;;
59300;SDS011;45073;52.740;6.784;2024-03-08T14:40:28;17.00;;;15.30;;
59300;SDS011;45073;52.740;6.784;2024-03-08T14:42:55;18.63;;;16.65;;
59300;SDS011;45073;52.740;6.784;2024-03-08T14:45:21;18.10;;;16.27;;